WetterOnline ( https://www.wetteronline.de )

Wetter aktuell Garmisch-Partenkirchen

Aktuelles Wetter: Garmisch-Partenkirchen (719m)

6-stündlich | Neueste Meldungen
Ortszeit Temperatur Wetter
Sa, 06.06. 20:00 14.1° C Regen
Sa, 06.06. 14:00 20.0° C bewölkt
Sa, 06.06. 8:00 11.6° C -
Sa, 06.06. 2:00 10.6° C -
Fr, 05.06. 20:00 14.4° C -
Fr, 05.06. 14:00 17.1° C -
Fr, 05.06. 8:00 9.9° C -
Fr, 05.06. 2:00 9.3° C leichter Regen
Ortszeit Temperatur Wetter
Sa, 06.06. 23:00 12.4° C bedeckt
Sa, 06.06. 22:40 12.4° C bedeckt
Sa, 06.06. 22:30 12.5° C bedeckt
Sa, 06.06. 22:20 12.5° C bedeckt
Sa, 06.06. 22:10 12.7° C bedeckt
Sa, 06.06. 22:00 12.7° C leichter Regen
Sa, 06.06. 21:50 12.7° C leichter Regen
Sa, 06.06. 21:30 13.1° C leichter Regen
Sa, 06.06. 21:00 13.2° C bedeckt
Sa, 06.06. 20:30 13.5° C leichter Regen
Sa, 06.06. 20:00 14.1° C Regen
Sa, 06.06. 19:30 14.2° C starker Regen
Ortszeit Relative Feuchte Sichtweite
Sa, 06.06. 20:00 91% >70 km
Sa, 06.06. 14:00 52% >70 km
Sa, 06.06. 8:00 87% >70 km
Sa, 06.06. 2:00 90% >70 km
Fr, 05.06. 20:00 66% >70 km
Fr, 05.06. 14:00 51% >70 km
Fr, 05.06. 8:00 95% 65 km
Fr, 05.06. 2:00 97% 40 km
Ortszeit Relative Feuchte Sichtweite
Sa, 06.06. 23:00 98% 17 km
Sa, 06.06. 22:40 97% -
Sa, 06.06. 22:30 97% 17 km
Sa, 06.06. 22:20 97% -
Sa, 06.06. 22:10 98% -
Sa, 06.06. 22:00 97% 30 km
Sa, 06.06. 21:50 97% -
Sa, 06.06. 21:30 97% 30 km
Sa, 06.06. 21:00 93% >70 km
Sa, 06.06. 20:30 96% 5.0 km
Sa, 06.06. 20:00 91% >70 km
Sa, 06.06. 19:30 91% 5.0 km
Ortszeit Niederschlagsmenge Niederschlagsart
Sa, 06.06. 20:00 7 l/m2 in 12 Std. Regenschauer
Sa, 06.06. 14:00 0.1 l/m2 in 6 Std. Regen
Sa, 06.06. 8:00 0.1 l/m2 in 12 Std. Regen
Sa, 06.06. 2:00 0.0 l/m2 in 6 Std. -
Fr, 05.06. 20:00 0.1 l/m2 in 12 Std. -
Fr, 05.06. 14:00 0.1 l/m2 in 6 Std. Regen
Fr, 05.06. 8:00 10 l/m2 in 12 Std. Regen
Fr, 05.06. 2:00 9 l/m2 in 6 Std. Regen
Ortszeit Niederschlagsmenge Niederschlagsart
Sa, 06.06. 23:00 0.1 l/m2 in 1 Std. Regen
Sa, 06.06. 22:40 keine Meldung -
Sa, 06.06. 22:30 0.1 l/m2 in 1 Std. Schneeregen
Sa, 06.06. 22:20 keine Meldung -
Sa, 06.06. 22:10 keine Meldung -
Sa, 06.06. 22:00 0.2 l/m2 in 1 Std. Regen
Sa, 06.06. 21:50 keine Meldung -
Sa, 06.06. 21:30 0.1 l/m2 in 1 Std. -
Sa, 06.06. 21:00 0.8 l/m2 in 1 Std. Regen
Sa, 06.06. 20:30 0.7 l/m2 in 1 Std. -
Sa, 06.06. 20:00 6.4 l/m2 in 1 Std. Regenschauer
Sa, 06.06. 19:30 5.7 l/m2 in 1 Std. -
Ortszeit Stärke Spitze Richtung
km/h Bft. km/h Grad Sektor
Sa, 06.06. 20:00 6 1 30 40° NO
Sa, 06.06. 14:00 14 3 32 50° NO
Sa, 06.06. 8:00 6 1 13 210° SW
Sa, 06.06. 2:00 4 1 7 200° S
Fr, 05.06. 20:00 4 1 32 120° SO
Fr, 05.06. 14:00 7 2 22 50° NO
Fr, 05.06. 8:00 4 1 11 10° N
Fr, 05.06. 2:00 4 1 18 210° SW
Ortszeit Stärke Spitze Richtung
km/h Bft. km/h Grad Sektor
Sa, 06.06. 23:00 4 1 7 230° SW
Sa, 06.06. 22:40 4 1 - 210° SW
Sa, 06.06. 22:30 4 1 7 200° S
Sa, 06.06. 22:20 4 1 - 200° S
Sa, 06.06. 22:10 6 1 - 260° W
Sa, 06.06. 22:00 4 1 7 200° S
Sa, 06.06. 21:50 4 1 - 200° S
Sa, 06.06. 21:30 4 1 7 260° W
Sa, 06.06. 21:00 4 1 18 110° O
Sa, 06.06. 20:30 7 2 18 110° O
Sa, 06.06. 20:00 6 1 19 40° NO
Sa, 06.06. 19:30 7 2 19 220° SW
Ortszeit Untergrenze Bedeckung Gattung
total tief tief mittel hoch
Sa, 06.06. 20:00 360 m 8/8 7/8 - - -
Sa, 06.06. 14:00 1410 m 8/8 5/8 - - -
Sa, 06.06. 8:00 - - - - - -
Sa, 06.06. 2:00 - - - - - -
Fr, 05.06. 20:00 - - - - - -
Fr, 05.06. 14:00 - - - - - -
Fr, 05.06. 8:00 - - - - - -
Fr, 05.06. 2:00 - - - - - -
Ortszeit Bedeckungsgrad in Achtel und Wolkenuntergrenze
Sa, 06.06. 23:00 1(60m) 8(1500m)
Sa, 06.06. 22:40 1(1410m) 8(1500m)
Sa, 06.06. 22:30 2(180m) 8(1500m) 8(2100m)
Sa, 06.06. 22:20 2(180m) 8(1500m) 8(2100m)
Sa, 06.06. 22:10 3(210m) 8(1500m) 8(1800m)
Sa, 06.06. 22:00 2(180m) 7(1500m) 7(1500m)
Sa, 06.06. 21:50 2(180m) 7(1500m)
Sa, 06.06. 21:30 3(780m) 5(1170m) 8(1380m)
Sa, 06.06. 21:00 3(180m) 7(780m) 8(1020m)
Sa, 06.06. 20:30 4(540m) 7(1320m) 8(1800m)
Sa, 06.06. 20:00 2(360m) 7(1800m) 8(3000m)
Sa, 06.06. 19:30 1(870m) 7(1290m) 8(2100m)
Ortszeit Luftdruck NN (hPa) Tendenz (hPa in 3 Std.)
Sa, 06.06. 20:00 1006 + 1,2
Sa, 06.06. 14:00 1003 - 0,2
Sa, 06.06. 8:00 1005 + 0,5
Sa, 06.06. 2:00 1006 + 0,6
Fr, 05.06. 20:00 1002 + 1,7
Fr, 05.06. 14:00 998 - 0,8
Fr, 05.06. 8:00 1001 + 1,3
Fr, 05.06. 2:00 1000 - 0,2
Ortszeit Luftdruck NN (hPa) Tendenz (hPa in 3 Std.)
Sa, 06.06. 23:00 1008 + 0,9
Sa, 06.06. 22:40 1008 keine Meldung
Sa, 06.06. 22:30 1008 + 1,0
Sa, 06.06. 22:20 1008 keine Meldung
Sa, 06.06. 22:10 1007 keine Meldung
Sa, 06.06. 22:00 1007 + 1,7
Sa, 06.06. 21:50 1007 keine Meldung
Sa, 06.06. 21:30 1007 + 1,7
Sa, 06.06. 21:00 1007 + 1,8
Sa, 06.06. 20:30 1006 + 1,7
Sa, 06.06. 20:00 1006 + 1,2
Sa, 06.06. 19:30 1006 + 1,3
Ortszeit Schneehöhe (cm)
Sa, 06.06. 20:00 -
Sa, 06.06. 14:00 -
Sa, 06.06. 8:00 -
Sa, 06.06. 2:00 -
Fr, 05.06. 20:00 -
Fr, 05.06. 14:00 -
Fr, 05.06. 8:00 -
Fr, 05.06. 2:00 -
Ortszeit Schneehöhe (cm)
Sa, 06.06. 23:00 -
Sa, 06.06. 22:40 -
Sa, 06.06. 22:30 -
Sa, 06.06. 22:20 -
Sa, 06.06. 22:10 -
Sa, 06.06. 22:00 -
Sa, 06.06. 21:50 -
Sa, 06.06. 21:30 -
Sa, 06.06. 21:00 -
Sa, 06.06. 20:30 -
Sa, 06.06. 20:00 -
Sa, 06.06. 19:30 -
Link zu dieser Seite / Seite empfehlen

Das Wetter in ...